createdAt,value
2023-03-24T00:13:15.165Z,99560.53
2023-03-24T00:18:46.862Z,99481.75
2023-03-24T00:24:14.693Z,99545.06
2023-03-24T00:29:28.158Z,99469.09
2023-03-24T00:34:47.124Z,99475.00
2023-03-24T00:39:54.889Z,99470.63
2023-03-24T00:46:11.502Z,99452.50
2023-03-24T01:02:43.914Z,99414.81
2023-03-24T01:07:46.128Z,99430.84
2023-03-24T01:13:12.312Z,99458.34
2023-03-24T01:18:42.519Z,99406.63
2023-03-24T01:23:54.403Z,99387.47
2023-03-24T01:29:01.671Z,99358.69
2023-03-24T01:34:09.252Z,99423.16
2023-03-24T01:44:36.802Z,99358.16
2023-03-24T01:49:43.263Z,99390.78
2023-03-24T01:55:01.750Z,99391.03
2023-03-24T02:05:46.128Z,99397.16
2023-03-24T02:10:48.902Z,99364.31
2023-03-24T02:16:12.676Z,99447.94
2023-03-24T02:22:03.794Z,99449.81
2023-03-24T02:27:38.793Z,99428.13
2023-03-24T02:33:17.701Z,99452.91
2023-03-24T02:38:46.233Z,99479.31
2023-03-24T02:44:47.539Z,99493.22
2023-03-24T02:50:45.135Z,99456.81
2023-03-24T02:55:58.962Z,99482.88
2023-03-24T03:01:33.126Z,99525.53
2023-03-24T03:06:58.864Z,99511.53
2023-03-24T03:12:20.793Z,99537.66
2023-03-24T03:17:43.123Z,99542.91
2023-03-24T03:23:38.336Z,99528.03
2023-03-24T03:28:44.498Z,99586.72
2023-03-24T03:34:26.060Z,99518.50
2023-03-24T03:39:31.263Z,99514.94
2023-03-24T03:44:58.241Z,99595.13
2023-03-24T03:50:18.623Z,99584.09
2023-03-24T03:55:20.502Z,99562.97
2023-03-24T04:00:24.781Z,99620.75
2023-03-24T04:05:36.414Z,99601.59
2023-03-24T04:11:15.911Z,99632.00
2023-03-24T04:17:14.196Z,99663.28
2023-03-24T04:22:44.150Z,99616.72
2023-03-24T04:28:10.322Z,99642.06
2023-03-24T04:33:31.986Z,99639.72
2023-03-24T04:38:41.697Z,99610.16
2023-03-24T04:43:45.024Z,99643.31
2023-03-24T04:49:08.194Z,99697.47
2023-03-24T04:54:09.913Z,99656.94
2023-03-24T04:59:28.356Z,99716.44
2023-03-24T05:04:37.307Z,99706.75
2023-03-24T05:09:54.080Z,99729.91
2023-03-24T05:15:09.341Z,99725.72
2023-03-24T05:26:09.222Z,99750.56
2023-03-24T05:32:46.122Z,99749.25
2023-03-24T05:38:02.697Z,99756.16
2023-03-24T05:43:04.423Z,99722.88
2023-03-24T05:48:12.113Z,99707.72
2023-03-24T05:53:15.191Z,99771.69
2023-03-24T06:03:53.228Z,99722.59
2023-03-24T06:08:54.995Z,99742.84
2023-03-24T06:14:22.601Z,99786.91
2023-03-24T06:19:24.793Z,99753.25
2023-03-24T06:24:51.142Z,99813.56
2023-03-24T06:30:12.742Z,99733.47
2023-03-24T06:35:15.832Z,99756.09
2023-03-24T06:40:31.356Z,99770.59
2023-03-24T07:29:34.276Z,99872.03
2023-03-24T07:35:01.538Z,99893.53
2023-03-24T07:46:05.830Z,99860.84
2023-03-24T07:51:13.352Z,99891.06
2023-03-24T07:56:16.031Z,99922.19
2023-03-24T08:06:57.237Z,99930.69
2023-03-24T08:12:02.160Z,99892.19
2023-03-24T08:17:53.270Z,99947.50
2023-03-24T08:22:55.657Z,99960.91
2023-03-24T08:27:57.258Z,99969.09
2023-03-24T08:33:01.995Z,99970.63
2023-03-24T08:38:12.071Z,99982.91
2023-03-24T08:43:36.655Z,99989.59
2023-03-24T08:48:57.669Z,99955.41
2023-03-24T08:54:32.072Z,99963.75
2023-03-24T09:06:07.628Z,99944.16
2023-03-24T09:11:33.183Z,100005.09
2023-03-24T09:17:00.126Z,100013.03
2023-03-24T09:22:27.509Z,100015.09
2023-03-24T09:27:29.924Z,100009.22
2023-03-24T09:32:33.979Z,100013.31
2023-03-24T09:37:52.513Z,99968.22
2023-03-24T09:43:36.009Z,99974.69
2023-03-24T09:54:28.354Z,100040.31
2023-03-24T09:59:36.364Z,100053.16
2023-03-24T10:04:47.633Z,100061.78
2023-03-24T10:10:45.814Z,100062.69
2023-03-24T10:16:14.536Z,100072.84
2023-03-24T10:21:41.472Z,100071.28
2023-03-24T10:27:10.496Z,100075.91
2023-03-24T10:33:02.494Z,100076.50
2023-03-24T10:38:18.613Z,100014.22
2023-03-24T10:43:25.116Z,100062.19
2023-03-24T11:00:40.021Z,100045.06
2023-03-24T11:12:38.162Z,100081.94
2023-03-24T11:18:30.354Z,100086.34
2023-03-24T11:30:08.362Z,100054.41
2023-03-24T12:11:21.487Z,100032.34
2023-03-24T12:17:07.333Z,100083.28
2023-03-24T12:23:11.289Z,100015.69
2023-03-24T12:28:42.741Z,100085.34
2023-03-24T12:58:41.750Z,100046.88
2023-03-24T13:04:03.256Z,100046.06
2023-03-24T13:09:55.981Z,100052.97
2023-03-24T13:15:24.784Z,100028.63
2023-03-24T13:21:03.386Z,100051.63
2023-03-24T13:32:26.439Z,100011.34
2023-03-24T13:37:57.582Z,100051.53
2023-03-24T13:43:22.207Z,100002.78
2023-03-24T13:48:33.461Z,100042.50
2023-03-24T13:53:46.026Z,100032.66
2023-03-24T13:59:37.398Z,100036.13
2023-03-24T14:04:46.943Z,100020.75
2023-03-24T14:10:11.563Z,100013.78
2023-03-24T14:15:25.438Z,100027.78
2023-03-24T14:20:44.323Z,100015.66
2023-03-24T14:26:19.160Z,99982.44
2023-03-24T14:31:36.584Z,100028.38
2023-03-24T14:36:43.715Z,100030.16
2023-03-24T14:41:47.173Z,99964.44
2023-03-24T14:46:50.387Z,100003.00
2023-03-24T14:51:55.002Z,100005.38
2023-03-24T14:56:58.619Z,99998.59
2023-03-24T15:02:15.869Z,99995.22
2023-03-24T15:07:17.423Z,99961.88
2023-03-24T15:12:20.692Z,100004.53
2023-03-24T15:17:24.049Z,100001.19
2023-03-24T15:22:25.641Z,99997.72
2023-03-24T15:27:29.985Z,99983.97
2023-03-24T15:32:38.835Z,99985.31
2023-03-24T15:37:48.148Z,99974.78
2023-03-24T15:42:50.635Z,99979.22
2023-03-24T15:48:22.871Z,99944.50
2023-03-24T15:53:30.615Z,99941.09
2023-03-24T15:58:32.405Z,99957.56
2023-03-24T16:03:35.037Z,99941.16
2023-03-24T16:14:46.322Z,99953.59
2023-03-24T16:19:47.972Z,99912.41
2023-03-24T16:24:49.643Z,99911.84
2023-03-24T16:29:51.366Z,99932.06
2023-03-24T16:35:04.662Z,99897.47
2023-03-24T16:46:27.012Z,99962.66
2023-03-24T16:51:29.762Z,99910.13
2023-03-24T16:56:39.524Z,99963.28
2023-03-24T17:02:03.277Z,99917.38
2023-03-24T17:07:20.381Z,99938.81
2023-03-24T17:12:21.955Z,99901.41
2023-03-24T17:17:28.232Z,99939.38
2023-03-24T17:22:43.845Z,99875.66
2023-03-24T17:28:17.168Z,99950.78
2023-03-24T17:33:18.822Z,99951.16
2023-03-24T17:38:26.034Z,99870.00
2023-03-24T17:43:33.931Z,99910.44
2023-03-24T17:48:37.180Z,99939.59
2023-03-24T17:53:38.848Z,99909.31
2023-03-24T17:58:47.549Z,99939.84
2023-03-24T18:04:36.972Z,99944.91
2023-03-24T18:09:39.029Z,99916.53
2023-03-24T18:20:29.120Z,99912.31
2023-03-24T18:25:46.056Z,99865.53
2023-03-24T18:36:42.973Z,99884.41
2023-03-24T18:41:44.697Z,99878.34
2023-03-24T18:46:46.377Z,99888.78
2023-03-24T18:51:51.595Z,99910.00
2023-03-24T18:57:04.794Z,99910.41
2023-03-24T19:02:17.950Z,99896.06
2023-03-24T19:12:51.705Z,99941.09
2023-03-24T19:18:03.709Z,99911.00
2023-03-24T19:23:12.043Z,99910.72
2023-03-24T19:28:22.698Z,99905.59
2023-03-24T19:39:08.517Z,99856.72
2023-03-24T19:44:10.388Z,99875.06
2023-03-24T19:49:12.051Z,99910.69
2023-03-24T19:54:13.799Z,99868.59
2023-03-24T19:59:30.341Z,99922.25
2023-03-24T20:04:41.418Z,99913.69
2023-03-24T20:09:46.462Z,99848.28
2023-03-24T20:14:48.146Z,99858.13
2023-03-24T20:19:49.901Z,99903.69
2023-03-24T20:25:03.805Z,99882.09
2023-03-24T20:30:12.341Z,99892.69
2023-03-24T20:35:33.400Z,99861.88
2023-03-24T20:40:36.226Z,99897.63
2023-03-24T20:45:47.486Z,99888.97
2023-03-24T20:50:53.450Z,99849.38
2023-03-24T20:56:19.099Z,99909.88
2023-03-24T21:01:36.047Z,99873.13
2023-03-24T21:06:49.355Z,99852.72
2023-03-24T21:11:51.400Z,99854.31
2023-03-24T21:16:53.353Z,99835.22
2023-03-24T21:22:18.512Z,99845.50
2023-03-24T21:27:21.323Z,99880.19
2023-03-24T21:32:23.684Z,99824.44
2023-03-24T21:37:25.600Z,99833.78
2023-03-24T21:42:30.703Z,99839.97
2023-03-24T21:47:49.152Z,99845.59
2023-03-24T21:53:00.122Z,99864.59
2023-03-24T21:58:01.873Z,99895.78
2023-03-24T22:03:03.874Z,99874.41
2023-03-24T22:08:22.470Z,99852.34
2023-03-24T22:13:25.958Z,99844.06
2023-03-24T22:18:30.161Z,99871.34
2023-03-24T22:23:33.619Z,99878.31
2023-03-24T22:28:38.936Z,99857.19
2023-03-24T22:33:42.435Z,99836.19
2023-03-24T22:38:46.993Z,99842.25
2023-03-24T22:43:53.505Z,99822.25
2023-03-24T22:49:05.766Z,99870.47
2023-03-24T22:54:07.580Z,99824.00
2023-03-24T22:59:09.395Z,99845.03
2023-03-24T23:04:11.407Z,99865.78
2023-03-24T23:09:15.790Z,99898.59
2023-03-24T23:14:18.530Z,99865.84
2023-03-24T23:19:35.372Z,99892.34
2023-03-24T23:24:39.669Z,99898.06
2023-03-24T23:29:42.015Z,99827.91
2023-03-24T23:34:46.204Z,99845.06
2023-03-24T23:39:50.382Z,99897.56
2023-03-24T23:45:06.900Z,99895.25
2023-03-24T23:50:09.652Z,99838.41
2023-03-24T23:55:36.764Z,99900.97
